Page Field
KFMY : now visible

Airfield :











YOU CAN JOIN US ON...

 
LOGIN :

Register | Disclaimer

   EN    FR    IT 

 









Legend :    VFR   Marginal VFR   IFR   Intensive IFR   Very Intensive IFR
Visi :
Ceiling :
>= 8 km
>= 3000ft
5 to 8 km
1000 to 3000 ft
1500m to 5 km
500 to 1000 ft
800 to 1500m
200 to 500 ft
< 800m
< 200 ft
Symbols :   Thunderstorms  Fog  Heavy snow  Heavy precipitations  Wind > 20 kt






- Airport Elevation : 17 ft


KFMY - Page Field

CURRENT METAR :
  • 080753Z AUTO 00000KT 10SM BKN090 BKN110 18/13 A3012 RMK AO2 SLP202 T01780128 $

EXPIRED METARs :
  • 080653Z AUTO 09004KT 10SM FEW090 BKN110 18/13 A3012 RMK AO2 SLP202 T01830128 $
  • 080553Z AUTO 09004KT 10SM SCT090 OVC110 19/13 A3014 RMK AO2 SLP206 T01890128 10228 20183 58003 $

TAF KFMY
Valid from the 08 at 06:00 until the 09 at 06:00 UTC


080520Z 0806/0906 06003KT P6SM BKN090
FM081500 08007KT P6SM SCT120 SCT250
FM081800 13007KT P6SM SCT040 SCT120 SCT250
FM090000 VRB03KT P6SM FEW250



MET'MAP, your aeronautical weather chart ! - Copyright ORBIFLY December 2007 - Disclaimer

ORBIFLY MET'MAP TEAM :

Programming & Development : Alexandra Zaïnal
Concept & original design : Baudouin d'Aumeries
Assistance for programming : Marc-Olivier Méhu
Technical & hardware support : Manuel Goepfert

Contact : metmap@orbifly.com




SOURCES & CREDITS :

   NOAA       Earth
Advisory